sensor_id;sensor_type;location;lat;lon;timestamp;temperature;humidity
60313;DHT22;46158;52.850;6.970;2024-03-06T00:02:08;16.20;73.70
60313;DHT22;46158;52.850;6.970;2024-03-06T00:04:34;16.20;73.70
60313;DHT22;46158;52.850;6.970;2024-03-06T00:07:00;16.10;73.70
60313;DHT22;46158;52.850;6.970;2024-03-06T00:09:26;16.20;73.70
60313;DHT22;46158;52.850;6.970;2024-03-06T00:11:55;16.10;73.60
60313;DHT22;46158;52.850;6.970;2024-03-06T00:14:22;16.10;73.60
60313;DHT22;46158;52.850;6.970;2024-03-06T00:16:48;16.10;73.60
60313;DHT22;46158;52.850;6.970;2024-03-06T00:19:16;16.10;73.60
60313;DHT22;46158;52.850;6.970;2024-03-06T00:21:42;16.10;74.30
60313;DHT22;46158;52.850;6.970;2024-03-06T00:24:08;16.00;73.50
60313;DHT22;46158;52.850;6.970;2024-03-06T00:26:33;16.00;73.50
60313;DHT22;46158;52.850;6.970;2024-03-06T00:28:59;16.00;73.50
60313;DHT22;46158;52.850;6.970;2024-03-06T00:31:25;16.00;73.50
60313;DHT22;46158;52.850;6.970;2024-03-06T00:33:50;16.00;73.50
60313;DHT22;46158;52.850;6.970;2024-03-06T00:36:16;16.00;73.60
60313;DHT22;46158;52.850;6.970;2024-03-06T00:38:42;16.00;73.50
60313;DHT22;46158;52.850;6.970;2024-03-06T00:41:08;15.90;73.50
60313;DHT22;46158;52.850;6.970;2024-03-06T00:43:34;15.90;73.50
60313;DHT22;46158;52.850;6.970;2024-03-06T00:45:59;15.90;73.50
60313;DHT22;46158;52.850;6.970;2024-03-06T00:48:25;15.90;73.50
60313;DHT22;46158;52.850;6.970;2024-03-06T00:50:51;15.90;73.50
60313;DHT22;46158;52.850;6.970;2024-03-06T00:53:17;15.80;73.40
60313;DHT22;46158;52.850;6.970;2024-03-06T00:55:42;15.80;73.40
60313;DHT22;46158;52.850;6.970;2024-03-06T00:58:08;15.80;73.50
60313;DHT22;46158;52.850;6.970;2024-03-06T01:00:33;15.80;73.50
60313;DHT22;46158;52.850;6.970;2024-03-06T01:02:59;15.80;73.50
60313;DHT22;46158;52.850;6.970;2024-03-06T01:05:25;15.80;73.50
60313;DHT22;46158;52.850;6.970;2024-03-06T01:07:50;15.70;73.50
60313;DHT22;46158;52.850;6.970;2024-03-06T01:10:16;15.70;73.50
60313;DHT22;46158;52.850;6.970;2024-03-06T01:12:41;15.70;73.50
60313;DHT22;46158;52.850;6.970;2024-03-06T01:15:11;15.70;73.50
60313;DHT22;46158;52.850;6.970;2024-03-06T01:17:37;15.70;73.50
60313;DHT22;46158;52.850;6.970;2024-03-06T01:20:03;15.70;73.50
60313;DHT22;46158;52.850;6.970;2024-03-06T01:22:32;15.60;73.50
60313;DHT22;46158;52.850;6.970;2024-03-06T01:24:58;15.60;73.50
60313;DHT22;46158;52.850;6.970;2024-03-06T01:27:24;15.60;73.50
60313;DHT22;46158;52.850;6.970;2024-03-06T01:29:50;15.60;73.50
60313;DHT22;46158;52.850;6.970;2024-03-06T01:32:16;15.60;73.50
60313;DHT22;46158;52.850;6.970;2024-03-06T01:34:41;15.50;73.50
60313;DHT22;46158;52.850;6.970;2024-03-06T01:37:07;15.50;73.50
60313;DHT22;46158;52.850;6.970;2024-03-06T01:39:33;15.50;73.40
60313;DHT22;46158;52.850;6.970;2024-03-06T01:42:01;15.50;73.40
60313;DHT22;46158;52.850;6.970;2024-03-06T01:44:27;15.50;73.40
60313;DHT22;46158;52.850;6.970;2024-03-06T01:46:52;15.50;73.40
60313;DHT22;46158;52.850;6.970;2024-03-06T01:49:20;15.50;73.40
60313;DHT22;46158;52.850;6.970;2024-03-06T01:51:49;15.50;73.40
60313;DHT22;46158;52.850;6.970;2024-03-06T01:54:16;15.40;73.30
60313;DHT22;46158;52.850;6.970;2024-03-06T01:56:46;15.40;73.30
60313;DHT22;46158;52.850;6.970;2024-03-06T01:59:12;15.40;73.30
60313;DHT22;46158;52.850;6.970;2024-03-06T02:01:39;15.30;73.10
60313;DHT22;46158;52.850;6.970;2024-03-06T02:04:06;15.30;73.50
60313;DHT22;46158;52.850;6.970;2024-03-06T02:06:35;15.30;73.40
60313;DHT22;46158;52.850;6.970;2024-03-06T02:09:01;15.30;73.40
60313;DHT22;46158;52.850;6.970;2024-03-06T02:11:28;15.30;73.30
60313;DHT22;46158;52.850;6.970;2024-03-06T02:13:55;15.30;73.40
60313;DHT22;46158;52.850;6.970;2024-03-06T02:16:20;15.30;73.40
60313;DHT22;46158;52.850;6.970;2024-03-06T02:18:56;15.30;73.40
60313;DHT22;46158;52.850;6.970;2024-03-06T02:21:23;15.20;73.10
60313;DHT22;46158;52.850;6.970;2024-03-06T02:23:49;15.20;73.30
60313;DHT22;46158;52.850;6.970;2024-03-06T02:26:19;15.20;73.30
60313;DHT22;46158;52.850;6.970;2024-03-06T02:28:52;15.20;73.30
60313;DHT22;46158;52.850;6.970;2024-03-06T02:31:19;15.20;73.20
60313;DHT22;46158;52.850;6.970;2024-03-06T02:33:48;15.20;73.30
60313;DHT22;46158;52.850;6.970;2024-03-06T02:36:15;15.20;73.30
60313;DHT22;46158;52.850;6.970;2024-03-06T02:38:42;15.10;73.30
60313;DHT22;46158;52.850;6.970;2024-03-06T02:41:09;15.10;73.30
60313;DHT22;46158;52.850;6.970;2024-03-06T02:43:34;15.10;73.30
60313;DHT22;46158;52.850;6.970;2024-03-06T02:46:00;15.10;73.30
60313;DHT22;46158;52.850;6.970;2024-03-06T02:48:26;15.10;73.40
60313;DHT22;46158;52.850;6.970;2024-03-06T02:50:52;15.10;73.30
60313;DHT22;46158;52.850;6.970;2024-03-06T02:53:18;15.10;73.30
60313;DHT22;46158;52.850;6.970;2024-03-06T02:55:43;15.00;73.30
60313;DHT22;46158;52.850;6.970;2024-03-06T02:58:09;15.00;73.30
60313;DHT22;46158;52.850;6.970;2024-03-06T03:00:35;15.00;73.30
60313;DHT22;46158;52.850;6.970;2024-03-06T03:03:01;15.00;73.30
60313;DHT22;46158;52.850;6.970;2024-03-06T03:05:26;15.00;73.30
60313;DHT22;46158;52.850;6.970;2024-03-06T03:07:52;15.00;73.30
60313;DHT22;46158;52.850;6.970;2024-03-06T03:10:19;15.00;73.30
60313;DHT22;46158;52.850;6.970;2024-03-06T03:12:45;15.00;73.30
60313;DHT22;46158;52.850;6.970;2024-03-06T03:15:11;15.00;73.40
60313;DHT22;46158;52.850;6.970;2024-03-06T03:17:36;14.90;73.30
60313;DHT22;46158;52.850;6.970;2024-03-06T03:20:03;14.90;73.30
60313;DHT22;46158;52.850;6.970;2024-03-06T03:22:36;14.90;73.30
60313;DHT22;46158;52.850;6.970;2024-03-06T03:25:07;14.90;73.30
60313;DHT22;46158;52.850;6.970;2024-03-06T03:27:33;14.90;73.10
60313;DHT22;46158;52.850;6.970;2024-03-06T03:29:59;14.90;73.00
60313;DHT22;46158;52.850;6.970;2024-03-06T03:32:25;14.90;72.90
60313;DHT22;46158;52.850;6.970;2024-03-06T03:34:50;14.90;72.80
60313;DHT22;46158;52.850;6.970;2024-03-06T03:37:16;15.00;72.80
60313;DHT22;46158;52.850;6.970;2024-03-06T03:39:44;14.90;72.70
60313;DHT22;46158;52.850;6.970;2024-03-06T03:42:09;15.00;72.70
60313;DHT22;46158;52.850;6.970;2024-03-06T03:44:35;15.00;72.60
60313;DHT22;46158;52.850;6.970;2024-03-06T03:47:00;15.00;72.60
60313;DHT22;46158;52.850;6.970;2024-03-06T03:49:26;15.00;72.50
60313;DHT22;46158;52.850;6.970;2024-03-06T03:51:51;15.00;72.50
60313;DHT22;46158;52.850;6.970;2024-03-06T03:54:17;15.00;72.40
60313;DHT22;46158;52.850;6.970;2024-03-06T03:56:43;15.00;72.40
60313;DHT22;46158;52.850;6.970;2024-03-06T03:59:09;15.00;72.40
60313;DHT22;46158;52.850;6.970;2024-03-06T04:01:34;15.00;72.30
60313;DHT22;46158;52.850;6.970;2024-03-06T04:04:00;15.00;72.20
60313;DHT22;46158;52.850;6.970;2024-03-06T04:06:25;15.00;72.30
60313;DHT22;46158;52.850;6.970;2024-03-06T04:08:51;15.00;72.30
60313;DHT22;46158;52.850;6.970;2024-03-06T04:11:17;15.00;72.30
60313;DHT22;46158;52.850;6.970;2024-03-06T04:13:43;15.00;72.20
60313;DHT22;46158;52.850;6.970;2024-03-06T04:16:09;15.00;72.20
60313;DHT22;46158;52.850;6.970;2024-03-06T04:18:34;15.00;72.10
60313;DHT22;46158;52.850;6.970;2024-03-06T04:21:06;15.00;72.10
60313;DHT22;46158;52.850;6.970;2024-03-06T04:23:33;15.00;72.00
60313;DHT22;46158;52.850;6.970;2024-03-06T04:25:59;15.00;72.00
60313;DHT22;46158;52.850;6.970;2024-03-06T04:28:25;15.00;71.90
60313;DHT22;46158;52.850;6.970;2024-03-06T04:30:51;15.00;72.00
60313;DHT22;46158;52.850;6.970;2024-03-06T04:33:16;15.00;71.90
60313;DHT22;46158;52.850;6.970;2024-03-06T04:35:42;15.00;72.00
60313;DHT22;46158;52.850;6.970;2024-03-06T04:38:08;15.00;72.00
60313;DHT22;46158;52.850;6.970;2024-03-06T04:40:34;15.00;72.70
60313;DHT22;46158;52.850;6.970;2024-03-06T04:43:00;15.00;72.00
60313;DHT22;46158;52.850;6.970;2024-03-06T04:45:26;15.00;72.00
60313;DHT22;46158;52.850;6.970;2024-03-06T04:47:53;15.00;72.00
60313;DHT22;46158;52.850;6.970;2024-03-06T04:50:19;15.00;72.10
60313;DHT22;46158;52.850;6.970;2024-03-06T04:52:44;14.90;71.90
60313;DHT22;46158;52.850;6.970;2024-03-06T04:55:10;15.00;72.00
60313;DHT22;46158;52.850;6.970;2024-03-06T04:57:37;15.00;72.00
60313;DHT22;46158;52.850;6.970;2024-03-06T05:00:04;15.00;71.90
60313;DHT22;46158;52.850;6.970;2024-03-06T05:02:33;15.00;71.90
60313;DHT22;46158;52.850;6.970;2024-03-06T05:05:00;14.90;71.70
60313;DHT22;46158;52.850;6.970;2024-03-06T05:07:27;14.90;71.90
60313;DHT22;46158;52.850;6.970;2024-03-06T05:09:53;14.90;71.70
60313;DHT22;46158;52.850;6.970;2024-03-06T05:12:19;14.90;71.70
60313;DHT22;46158;52.850;6.970;2024-03-06T05:14:44;14.90;71.70
60313;DHT22;46158;52.850;6.970;2024-03-06T05:17:10;14.90;71.60
60313;DHT22;46158;52.850;6.970;2024-03-06T05:19:36;14.90;71.70
60313;DHT22;46158;52.850;6.970;2024-03-06T05:22:02;14.90;71.70
60313;DHT22;46158;52.850;6.970;2024-03-06T05:24:29;14.90;71.70
60313;DHT22;46158;52.850;6.970;2024-03-06T05:26:54;14.90;71.70
60313;DHT22;46158;52.850;6.970;2024-03-06T05:29:20;14.90;71.70
60313;DHT22;46158;52.850;6.970;2024-03-06T05:31:46;14.90;71.70
60313;DHT22;46158;52.850;6.970;2024-03-06T05:34:11;14.90;71.60
60313;DHT22;46158;52.850;6.970;2024-03-06T05:36:37;14.90;71.60
60313;DHT22;46158;52.850;6.970;2024-03-06T05:39:03;14.90;71.60
60313;DHT22;46158;52.850;6.970;2024-03-06T05:41:38;14.90;71.60
60313;DHT22;46158;52.850;6.970;2024-03-06T05:44:05;15.00;71.60
60313;DHT22;46158;52.850;6.970;2024-03-06T05:46:31;14.90;71.60
60313;DHT22;46158;52.850;6.970;2024-03-06T05:48:56;14.90;71.50
60313;DHT22;46158;52.850;6.970;2024-03-06T05:51:22;15.00;71.50
60313;DHT22;46158;52.850;6.970;2024-03-06T05:53:47;15.00;71.50
60313;DHT22;46158;52.850;6.970;2024-03-06T05:56:13;15.00;71.40
60313;DHT22;46158;52.850;6.970;2024-03-06T05:58:39;15.00;71.40
60313;DHT22;46158;52.850;6.970;2024-03-06T06:01:04;15.00;71.30
60313;DHT22;46158;52.850;6.970;2024-03-06T06:03:30;15.00;71.40
60313;DHT22;46158;52.850;6.970;2024-03-06T06:05:56;15.00;71.30
60313;DHT22;46158;52.850;6.970;2024-03-06T06:08:22;15.00;71.30
60313;DHT22;46158;52.850;6.970;2024-03-06T06:10:48;15.00;71.30
60313;DHT22;46158;52.850;6.970;2024-03-06T06:13:13;15.00;71.20
60313;DHT22;46158;52.850;6.970;2024-03-06T06:15:40;15.00;71.30
60313;DHT22;46158;52.850;6.970;2024-03-06T06:18:06;15.00;71.40
60313;DHT22;46158;52.850;6.970;2024-03-06T06:20:32;15.00;71.50
60313;DHT22;46158;52.850;6.970;2024-03-06T06:22:58;15.00;71.60
60313;DHT22;46158;52.850;6.970;2024-03-06T06:25:23;15.10;71.80
60313;DHT22;46158;52.850;6.970;2024-03-06T06:27:49;15.10;71.90
60313;DHT22;46158;52.850;6.970;2024-03-06T06:30:16;15.10;72.00
60313;DHT22;46158;52.850;6.970;2024-03-06T06:32:42;15.10;72.10
60313;DHT22;46158;52.850;6.970;2024-03-06T06:35:09;15.10;72.10
60313;DHT22;46158;52.850;6.970;2024-03-06T06:37:35;15.20;72.30
60313;DHT22;46158;52.850;6.970;2024-03-06T06:40:01;15.20;72.20
60313;DHT22;46158;52.850;6.970;2024-03-06T06:42:32;15.20;72.30
60313;DHT22;46158;52.850;6.970;2024-03-06T06:44:59;15.30;72.30
60313;DHT22;46158;52.850;6.970;2024-03-06T06:47:25;15.30;72.30
60313;DHT22;46158;52.850;6.970;2024-03-06T06:49:50;15.30;72.30
60313;DHT22;46158;52.850;6.970;2024-03-06T06:52:16;15.30;72.30
60313;DHT22;46158;52.850;6.970;2024-03-06T06:54:42;15.30;72.30
60313;DHT22;46158;52.850;6.970;2024-03-06T06:57:07;15.40;72.40
60313;DHT22;46158;52.850;6.970;2024-03-06T06:59:34;15.40;72.50
60313;DHT22;46158;52.850;6.970;2024-03-06T07:02:00;15.40;72.40
60313;DHT22;46158;52.850;6.970;2024-03-06T07:04:26;15.40;72.50
60313;DHT22;46158;52.850;6.970;2024-03-06T07:06:51;15.50;72.60
60313;DHT22;46158;52.850;6.970;2024-03-06T07:09:17;15.50;72.60
60313;DHT22;46158;52.850;6.970;2024-03-06T07:11:43;15.50;72.70
60313;DHT22;46158;52.850;6.970;2024-03-06T07:14:11;15.50;72.60
60313;DHT22;46158;52.850;6.970;2024-03-06T07:16:44;15.50;72.60
60313;DHT22;46158;52.850;6.970;2024-03-06T07:19:10;15.60;72.70
60313;DHT22;46158;52.850;6.970;2024-03-06T07:21:36;15.60;72.70
60313;DHT22;46158;52.850;6.970;2024-03-06T07:24:03;15.60;72.70
60313;DHT22;46158;52.850;6.970;2024-03-06T07:26:30;15.60;72.70
60313;DHT22;46158;52.850;6.970;2024-03-06T07:28:56;15.60;72.80
60313;DHT22;46158;52.850;6.970;2024-03-06T07:31:23;15.60;72.70
60313;DHT22;46158;52.850;6.970;2024-03-06T07:33:49;15.60;72.70
60313;DHT22;46158;52.850;6.970;2024-03-06T07:36:14;15.60;72.70
60313;DHT22;46158;52.850;6.970;2024-03-06T07:38:42;15.70;72.80
60313;DHT22;46158;52.850;6.970;2024-03-06T07:41:07;15.70;72.80
60313;DHT22;46158;52.850;6.970;2024-03-06T07:43:33;15.70;72.80
60313;DHT22;46158;52.850;6.970;2024-03-06T07:45:59;15.70;72.70
60313;DHT22;46158;52.850;6.970;2024-03-06T07:48:24;15.70;72.70
60313;DHT22;46158;52.850;6.970;2024-03-06T07:50:50;15.70;72.70
60313;DHT22;46158;52.850;6.970;2024-03-06T07:53:15;15.70;72.70
60313;DHT22;46158;52.850;6.970;2024-03-06T07:55:41;15.80;72.80
60313;DHT22;46158;52.850;6.970;2024-03-06T07:58:07;15.80;72.70
60313;DHT22;46158;52.850;6.970;2024-03-06T08:00:36;15.80;72.70
60313;DHT22;46158;52.850;6.970;2024-03-06T08:03:01;15.80;72.70
60313;DHT22;46158;52.850;6.970;2024-03-06T08:05:28;15.80;72.60
60313;DHT22;46158;52.850;6.970;2024-03-06T08:07:54;15.80;72.50
60313;DHT22;46158;52.850;6.970;2024-03-06T08:10:19;15.80;72.50
60313;DHT22;46158;52.850;6.970;2024-03-06T08:12:45;15.80;72.50
60313;DHT22;46158;52.850;6.970;2024-03-06T08:15:14;15.80;72.50
60313;DHT22;46158;52.850;6.970;2024-03-06T08:17:42;15.90;72.60
60313;DHT22;46158;52.850;6.970;2024-03-06T08:20:11;15.90;72.60
60313;DHT22;46158;52.850;6.970;2024-03-06T08:22:41;15.90;72.60
60313;DHT22;46158;52.850;6.970;2024-03-06T08:25:08;15.90;72.70
60313;DHT22;46158;52.850;6.970;2024-03-06T08:27:35;15.90;72.70
60313;DHT22;46158;52.850;6.970;2024-03-06T08:30:03;15.90;72.80
60313;DHT22;46158;52.850;6.970;2024-03-06T08:32:31;15.90;72.70
60313;DHT22;46158;52.850;6.970;2024-03-06T08:34:58;15.90;72.70
60313;DHT22;46158;52.850;6.970;2024-03-06T08:37:24;15.90;72.70
60313;DHT22;46158;52.850;6.970;2024-03-06T08:39:50;15.90;72.70
60313;DHT22;46158;52.850;6.970;2024-03-06T08:42:15;15.90;72.70
60313;DHT22;46158;52.850;6.970;2024-03-06T08:44:44;15.90;72.70
60313;DHT22;46158;52.850;6.970;2024-03-06T08:47:11;15.90;72.70
60313;DHT22;46158;52.850;6.970;2024-03-06T08:49:37;16.00;72.70
60313;DHT22;46158;52.850;6.970;2024-03-06T08:52:02;16.00;72.70
60313;DHT22;46158;52.850;6.970;2024-03-06T08:54:28;15.90;72.70
60313;DHT22;46158;52.850;6.970;2024-03-06T08:56:55;16.00;72.80
60313;DHT22;46158;52.850;6.970;2024-03-06T08:59:24;16.00;72.80
60313;DHT22;46158;52.850;6.970;2024-03-06T09:01:52;15.90;72.70
60313;DHT22;46158;52.850;6.970;2024-03-06T09:04:17;16.00;72.80
60313;DHT22;46158;52.850;6.970;2024-03-06T09:06:43;16.00;72.80
60313;DHT22;46158;52.850;6.970;2024-03-06T09:09:09;16.00;72.80
60313;DHT22;46158;52.850;6.970;2024-03-06T09:11:35;16.00;72.80
60313;DHT22;46158;52.850;6.970;2024-03-06T09:14:00;16.00;72.80
60313;DHT22;46158;52.850;6.970;2024-03-06T09:16:26;16.00;72.70
60313;DHT22;46158;52.850;6.970;2024-03-06T09:18:53;16.00;72.60
60313;DHT22;46158;52.850;6.970;2024-03-06T09:21:18;16.00;72.60
60313;DHT22;46158;52.850;6.970;2024-03-06T09:23:45;16.00;72.60
60313;DHT22;46158;52.850;6.970;2024-03-06T09:26:11;16.00;72.60
60313;DHT22;46158;52.850;6.970;2024-03-06T09:28:36;16.00;72.60
60313;DHT22;46158;52.850;6.970;2024-03-06T09:31:04;16.00;72.60
60313;DHT22;46158;52.850;6.970;2024-03-06T09:33:30;15.90;72.60
60313;DHT22;46158;52.850;6.970;2024-03-06T09:35:55;16.00;72.60
60313;DHT22;46158;52.850;6.970;2024-03-06T09:38:22;16.00;72.70
60313;DHT22;46158;52.850;6.970;2024-03-06T09:40:48;16.00;72.70
60313;DHT22;46158;52.850;6.970;2024-03-06T09:43:14;16.00;72.70
60313;DHT22;46158;52.850;6.970;2024-03-06T09:45:40;16.00;72.70
60313;DHT22;46158;52.850;6.970;2024-03-06T09:48:06;16.00;72.70
60313;DHT22;46158;52.850;6.970;2024-03-06T09:50:35;16.00;72.60
60313;DHT22;46158;52.850;6.970;2024-03-06T09:53:04;16.00;72.60
60313;DHT22;46158;52.850;6.970;2024-03-06T09:55:31;16.00;72.60
60313;DHT22;46158;52.850;6.970;2024-03-06T09:57:57;16.00;72.60
60313;DHT22;46158;52.850;6.970;2024-03-06T10:00:23;16.00;72.60
60313;DHT22;46158;52.850;6.970;2024-03-06T10:02:59;16.00;72.60
60313;DHT22;46158;52.850;6.970;2024-03-06T10:05:25;16.00;72.50
60313;DHT22;46158;52.850;6.970;2024-03-06T10:07:51;16.00;72.60
60313;DHT22;46158;52.850;6.970;2024-03-06T10:10:19;16.00;72.60
60313;DHT22;46158;52.850;6.970;2024-03-06T10:12:45;16.00;72.60
60313;DHT22;46158;52.850;6.970;2024-03-06T10:15:11;16.00;72.60
60313;DHT22;46158;52.850;6.970;2024-03-06T10:17:38;16.00;72.60
60313;DHT22;46158;52.850;6.970;2024-03-06T10:20:24;16.00;72.60
60313;DHT22;46158;52.850;6.970;2024-03-06T10:22:53;16.10;72.50
60313;DHT22;46158;52.850;6.970;2024-03-06T10:25:22;16.10;72.60
60313;DHT22;46158;52.850;6.970;2024-03-06T10:28:08;16.10;73.30
60313;DHT22;46158;52.850;6.970;2024-03-06T10:30:37;16.10;72.60
60313;DHT22;46158;52.850;6.970;2024-03-06T10:33:06;16.10;72.60
60313;DHT22;46158;52.850;6.970;2024-03-06T10:35:32;16.10;72.60
60313;DHT22;46158;52.850;6.970;2024-03-06T10:38:00;16.10;72.60
60313;DHT22;46158;52.850;6.970;2024-03-06T10:40:31;16.10;72.60
60313;DHT22;46158;52.850;6.970;2024-03-06T10:42:58;16.10;72.60
60313;DHT22;46158;52.850;6.970;2024-03-06T10:48:02;16.10;72.60
60313;DHT22;46158;52.850;6.970;2024-03-06T10:50:29;16.10;72.60
60313;DHT22;46158;52.850;6.970;2024-03-06T10:52:55;16.10;72.70
60313;DHT22;46158;52.850;6.970;2024-03-06T10:55:22;16.10;72.70
60313;DHT22;46158;52.850;6.970;2024-03-06T10:57:49;16.10;72.80
60313;DHT22;46158;52.850;6.970;2024-03-06T11:00:17;16.20;72.70
60313;DHT22;46158;52.850;6.970;2024-03-06T11:02:46;16.10;72.60
60313;DHT22;46158;52.850;6.970;2024-03-06T11:05:14;16.10;72.60
60313;DHT22;46158;52.850;6.970;2024-03-06T11:07:40;16.20;72.70
60313;DHT22;46158;52.850;6.970;2024-03-06T11:10:06;16.10;72.60
60313;DHT22;46158;52.850;6.970;2024-03-06T11:12:37;16.10;72.60
60313;DHT22;46158;52.850;6.970;2024-03-06T11:15:10;16.10;72.50
60313;DHT22;46158;52.850;6.970;2024-03-06T11:17:38;16.10;72.60
60313;DHT22;46158;52.850;6.970;2024-03-06T11:31:03;16.10;72.60
60313;DHT22;46158;52.850;6.970;2024-03-06T11:33:44;16.20;72.70
60313;DHT22;46158;52.850;6.970;2024-03-06T11:39:05;16.20;72.70
60313;DHT22;46158;52.850;6.970;2024-03-06T11:44:12;16.20;72.70
60313;DHT22;46158;52.850;6.970;2024-03-06T11:46:44;16.20;72.60
60313;DHT22;46158;52.850;6.970;2024-03-06T11:49:18;16.20;72.70
60313;DHT22;46158;52.850;6.970;2024-03-06T11:51:46;16.20;72.70
60313;DHT22;46158;52.850;6.970;2024-03-06T11:54:13;16.20;72.70
60313;DHT22;46158;52.850;6.970;2024-03-06T11:56:44;16.20;72.60
60313;DHT22;46158;52.850;6.970;2024-03-06T11:59:10;16.20;72.60
60313;DHT22;46158;52.850;6.970;2024-03-06T12:01:37;16.20;72.70
60313;DHT22;46158;52.850;6.970;2024-03-06T12:04:03;16.20;73.40
60313;DHT22;46158;52.850;6.970;2024-03-06T12:06:33;16.20;72.80
60313;DHT22;46158;52.850;6.970;2024-03-06T12:08:59;16.20;72.80
60313;DHT22;46158;52.850;6.970;2024-03-06T12:11:25;16.20;72.80
60313;DHT22;46158;52.850;6.970;2024-03-06T12:13:54;16.20;72.90
60313;DHT22;46158;52.850;6.970;2024-03-06T12:16:21;16.20;72.90
60313;DHT22;46158;52.850;6.970;2024-03-06T12:18:46;16.20;72.90
60313;DHT22;46158;52.850;6.970;2024-03-06T12:21:12;16.20;73.00
60313;DHT22;46158;52.850;6.970;2024-03-06T12:23:39;16.20;73.00
60313;DHT22;46158;52.850;6.970;2024-03-06T12:26:09;16.20;73.10
60313;DHT22;46158;52.850;6.970;2024-03-06T12:28:36;16.20;73.10
60313;DHT22;46158;52.850;6.970;2024-03-06T12:31:03;16.20;73.10
60313;DHT22;46158;52.850;6.970;2024-03-06T12:33:29;16.20;73.00
60313;DHT22;46158;52.850;6.970;2024-03-06T12:36:03;16.20;73.00
60313;DHT22;46158;52.850;6.970;2024-03-06T12:38:30;16.20;73.00
60313;DHT22;46158;52.850;6.970;2024-03-06T12:40:56;16.20;73.00
60313;DHT22;46158;52.850;6.970;2024-03-06T12:43:21;16.20;73.10
60313;DHT22;46158;52.850;6.970;2024-03-06T12:45:47;16.20;73.10
60313;DHT22;46158;52.850;6.970;2024-03-06T12:48:13;16.10;73.10
60313;DHT22;46158;52.850;6.970;2024-03-06T12:50:38;16.20;73.20
60313;DHT22;46158;52.850;6.970;2024-03-06T12:53:04;16.20;73.20
60313;DHT22;46158;52.850;6.970;2024-03-06T12:55:31;16.20;73.20
60313;DHT22;46158;52.850;6.970;2024-03-06T12:57:57;16.20;73.20
60313;DHT22;46158;52.850;6.970;2024-03-06T13:00:23;16.20;73.40
60313;DHT22;46158;52.850;6.970;2024-03-06T13:02:49;16.20;73.30
60313;DHT22;46158;52.850;6.970;2024-03-06T13:05:18;16.10;73.20
60313;DHT22;46158;52.850;6.970;2024-03-06T13:07:45;16.10;73.30
60313;DHT22;46158;52.850;6.970;2024-03-06T13:10:11;16.10;73.30
60313;DHT22;46158;52.850;6.970;2024-03-06T13:12:40;16.10;73.30
60313;DHT22;46158;52.850;6.970;2024-03-06T13:15:06;16.20;73.40
60313;DHT22;46158;52.850;6.970;2024-03-06T13:17:35;16.10;73.40
60313;DHT22;46158;52.850;6.970;2024-03-06T13:20:01;16.10;73.40
60313;DHT22;46158;52.850;6.970;2024-03-06T13:22:27;16.10;73.40
60313;DHT22;46158;52.850;6.970;2024-03-06T13:24:53;16.10;73.50
60313;DHT22;46158;52.850;6.970;2024-03-06T13:27:18;16.10;73.50
60313;DHT22;46158;52.850;6.970;2024-03-06T13:29:44;16.20;73.50
60313;DHT22;46158;52.850;6.970;2024-03-06T13:32:09;16.20;73.60
60313;DHT22;46158;52.850;6.970;2024-03-06T13:34:35;16.20;73.60
60313;DHT22;46158;52.850;6.970;2024-03-06T13:37:00;16.20;73.60
60313;DHT22;46158;52.850;6.970;2024-03-06T13:39:26;16.20;73.70
60313;DHT22;46158;52.850;6.970;2024-03-06T13:41:52;16.10;73.70
60313;DHT22;46158;52.850;6.970;2024-03-06T13:44:18;16.10;73.70
60313;DHT22;46158;52.850;6.970;2024-03-06T13:46:44;16.20;73.90
60313;DHT22;46158;52.850;6.970;2024-03-06T13:52:04;16.10;73.90
60313;DHT22;46158;52.850;6.970;2024-03-06T13:54:40;16.20;74.70
60313;DHT22;46158;52.850;6.970;2024-03-06T13:57:07;16.20;74.00
60313;DHT22;46158;52.850;6.970;2024-03-06T13:59:33;16.20;74.80
60313;DHT22;46158;52.850;6.970;2024-03-06T14:02:00;16.20;74.20
60313;DHT22;46158;52.850;6.970;2024-03-06T14:04:26;16.20;74.20
60313;DHT22;46158;52.850;6.970;2024-03-06T14:06:52;16.20;74.20
60313;DHT22;46158;52.850;6.970;2024-03-06T14:09:17;16.10;74.20
60313;DHT22;46158;52.850;6.970;2024-03-06T14:11:44;16.20;74.30
60313;DHT22;46158;52.850;6.970;2024-03-06T14:14:09;16.20;74.30
60313;DHT22;46158;52.850;6.970;2024-03-06T14:16:37;16.20;74.30
60313;DHT22;46158;52.850;6.970;2024-03-06T14:19:02;16.20;74.30
60313;DHT22;46158;52.850;6.970;2024-03-06T14:21:30;16.20;74.30
60313;DHT22;46158;52.850;6.970;2024-03-06T14:23:58;16.20;74.40
60313;DHT22;46158;52.850;6.970;2024-03-06T14:26:24;16.20;74.40
60313;DHT22;46158;52.850;6.970;2024-03-06T14:28:49;16.20;74.40
60313;DHT22;46158;52.850;6.970;2024-03-06T14:31:15;16.20;74.40
60313;DHT22;46158;52.850;6.970;2024-03-06T14:33:41;16.20;74.40
60313;DHT22;46158;52.850;6.970;2024-03-06T14:36:07;16.20;74.40
60313;DHT22;46158;52.850;6.970;2024-03-06T14:38:33;16.20;74.40
60313;DHT22;46158;52.850;6.970;2024-03-06T14:40:59;16.20;74.40
60313;DHT22;46158;52.850;6.970;2024-03-06T14:43:24;16.20;74.50
60313;DHT22;46158;52.850;6.970;2024-03-06T14:45:50;16.20;74.50
60313;DHT22;46158;52.850;6.970;2024-03-06T14:48:16;16.20;74.50
60313;DHT22;46158;52.850;6.970;2024-03-06T14:50:42;16.20;74.50
60313;DHT22;46158;52.850;6.970;2024-03-06T14:53:09;16.10;74.40
60313;DHT22;46158;52.850;6.970;2024-03-06T14:55:35;16.20;74.50
60313;DHT22;46158;52.850;6.970;2024-03-06T14:58:01;16.20;74.50
60313;DHT22;46158;52.850;6.970;2024-03-06T15:00:26;16.20;74.60
60313;DHT22;46158;52.850;6.970;2024-03-06T15:02:52;16.20;74.60
60313;DHT22;46158;52.850;6.970;2024-03-06T15:05:18;16.20;74.60
60313;DHT22;46158;52.850;6.970;2024-03-06T15:07:43;16.20;74.60
60313;DHT22;46158;52.850;6.970;2024-03-06T15:10:09;16.20;74.60
60313;DHT22;46158;52.850;6.970;2024-03-06T15:12:35;16.20;74.60
60313;DHT22;46158;52.850;6.970;2024-03-06T15:15:03;16.20;74.60
60313;DHT22;46158;52.850;6.970;2024-03-06T15:17:31;16.20;74.70
60313;DHT22;46158;52.850;6.970;2024-03-06T15:19:58;16.20;74.60
60313;DHT22;46158;52.850;6.970;2024-03-06T15:22:24;16.20;74.60
60313;DHT22;46158;52.850;6.970;2024-03-06T15:24:49;16.20;74.70
60313;DHT22;46158;52.850;6.970;2024-03-06T15:27:18;16.20;74.70
60313;DHT22;46158;52.850;6.970;2024-03-06T15:29:44;16.20;74.70
60313;DHT22;46158;52.850;6.970;2024-03-06T15:32:10;16.20;74.70
60313;DHT22;46158;52.850;6.970;2024-03-06T15:34:36;16.20;74.70
60313;DHT22;46158;52.850;6.970;2024-03-06T15:37:02;16.20;74.80
60313;DHT22;46158;52.850;6.970;2024-03-06T15:39:28;16.20;74.80
60313;DHT22;46158;52.850;6.970;2024-03-06T15:41:54;16.20;74.70
60313;DHT22;46158;52.850;6.970;2024-03-06T15:44:21;16.20;74.60
60313;DHT22;46158;52.850;6.970;2024-03-06T15:46:47;16.20;74.60
60313;DHT22;46158;52.850;6.970;2024-03-06T15:49:23;16.20;74.50